sensor_id;sensor_type;location;lat;lon;timestamp;P1;durP1;ratioP1;P2;durP2;ratioP2
59390;SDS011;53405;57.012;40.984;2023-02-18T00:00:32;62.65;;;29.73;;
59390;SDS011;53405;57.012;40.984;2023-02-18T00:03:25;63.00;;;29.90;;
59390;SDS011;53405;57.012;40.984;2023-02-18T00:06:16;58.38;;;29.80;;
59390;SDS011;53405;57.012;40.984;2023-02-18T00:09:09;66.80;;;32.47;;
59390;SDS011;53405;57.012;40.984;2023-02-18T00:11:57;68.20;;;33.08;;
59390;SDS011;53405;57.012;40.984;2023-02-18T00:14:47;58.05;;;29.58;;
59390;SDS011;53405;57.012;40.984;2023-02-18T00:17:36;93.13;;;42.53;;
59390;SDS011;53405;57.012;40.984;2023-02-18T00:20:24;57.87;;;28.77;;
59390;SDS011;53405;57.012;40.984;2023-02-18T00:23:14;109.90;;;46.70;;
59390;SDS011;53405;57.012;40.984;2023-02-18T00:26:20;56.88;;;29.40;;
59390;SDS011;53405;57.012;40.984;2023-02-18T00:29:12;60.95;;;29.92;;
59390;SDS011;53405;57.012;40.984;2023-02-18T00:32:06;60.05;;;27.42;;
59390;SDS011;53405;57.012;40.984;2023-02-18T00:34:57;52.35;;;26.83;;
59390;SDS011;53405;57.012;40.984;2023-02-18T00:39:00;57.25;;;27.48;;
59390;SDS011;53405;57.012;40.984;2023-02-18T00:41:58;52.40;;;26.52;;
59390;SDS011;53405;57.012;40.984;2023-02-18T00:44:55;55.65;;;27.67;;
59390;SDS011;53405;57.012;40.984;2023-02-18T00:47:42;57.17;;;27.30;;
59390;SDS011;53405;57.012;40.984;2023-02-18T00:50:29;53.78;;;26.42;;
59390;SDS011;53405;57.012;40.984;2023-02-18T00:53:17;51.53;;;27.27;;
59390;SDS011;53405;57.012;40.984;2023-02-18T00:56:05;55.00;;;28.60;;
59390;SDS011;53405;57.012;40.984;2023-02-18T00:58:53;53.75;;;26.55;;
59390;SDS011;53405;57.012;40.984;2023-02-18T01:01:41;56.22;;;26.52;;
59390;SDS011;53405;57.012;40.984;2023-02-18T01:04:29;53.67;;;26.73;;
59390;SDS011;53405;57.012;40.984;2023-02-18T01:07:19;54.53;;;27.45;;
59390;SDS011;53405;57.012;40.984;2023-02-18T01:10:07;56.72;;;28.02;;
59390;SDS011;53405;57.012;40.984;2023-02-18T01:12:55;49.53;;;26.42;;
59390;SDS011;53405;57.012;40.984;2023-02-18T01:15:45;53.08;;;27.50;;
59390;SDS011;53405;57.012;40.984;2023-02-18T01:18:33;57.05;;;28.40;;
59390;SDS011;53405;57.012;40.984;2023-02-18T01:21:23;46.38;;;23.17;;
59390;SDS011;53405;57.012;40.984;2023-02-18T01:24:11;41.85;;;21.67;;
59390;SDS011;53405;57.012;40.984;2023-02-18T01:29:48;36.60;;;17.38;;
59390;SDS011;53405;57.012;40.984;2023-02-18T01:32:36;31.88;;;17.27;;
59390;SDS011;53405;57.012;40.984;2023-02-18T01:35:25;33.78;;;17.35;;
59390;SDS011;53405;57.012;40.984;2023-02-18T01:38:21;37.38;;;17.90;;
59390;SDS011;53405;57.012;40.984;2023-02-18T01:41:19;36.63;;;16.52;;
59390;SDS011;53405;57.012;40.984;2023-02-18T01:44:10;33.63;;;17.02;;
59390;SDS011;53405;57.012;40.984;2023-02-18T01:47:22;37.17;;;17.13;;
59390;SDS011;53405;57.012;40.984;2023-02-18T01:50:13;37.03;;;17.77;;
59390;SDS011;53405;57.012;40.984;2023-02-18T01:53:14;37.38;;;18.85;;
59390;SDS011;53405;57.012;40.984;2023-02-18T01:56:10;33.97;;;17.50;;
59390;SDS011;53405;57.012;40.984;2023-02-18T01:59:10;32.53;;;16.45;;
59390;SDS011;53405;57.012;40.984;2023-02-18T02:02:00;36.35;;;18.45;;
59390;SDS011;53405;57.012;40.984;2023-02-18T02:04:51;34.58;;;16.70;;
59390;SDS011;53405;57.012;40.984;2023-02-18T02:07:45;35.65;;;17.23;;
59390;SDS011;53405;57.012;40.984;2023-02-18T02:10:57;33.60;;;17.08;;
59390;SDS011;53405;57.012;40.984;2023-02-18T02:20:29;36.08;;;16.45;;
59390;SDS011;53405;57.012;40.984;2023-02-18T02:27:00;58.85;;;25.60;;
59390;SDS011;53405;57.012;40.984;2023-02-18T02:30:50;38.63;;;19.20;;
59390;SDS011;53405;57.012;40.984;2023-02-18T02:33:32;33.90;;;16.92;;
59390;SDS011;53405;57.012;40.984;2023-02-18T02:36:38;34.05;;;16.23;;
59390;SDS011;53405;57.012;40.984;2023-02-18T02:46:29;33.10;;;16.33;;
59390;SDS011;53405;57.012;40.984;2023-02-18T02:52:44;33.55;;;15.77;;
59390;SDS011;53405;57.012;40.984;2023-02-18T02:55:39;30.88;;;15.30;;
59390;SDS011;53405;57.012;40.984;2023-02-18T02:58:31;29.15;;;14.48;;
59390;SDS011;53405;57.012;40.984;2023-02-18T03:01:29;31.55;;;16.08;;
59390;SDS011;53405;57.012;40.984;2023-02-18T03:08:25;33.28;;;15.23;;
59390;SDS011;53405;57.012;40.984;2023-02-18T03:11:10;30.98;;;15.75;;
59390;SDS011;53405;57.012;40.984;2023-02-18T03:14:12;34.58;;;16.65;;
59390;SDS011;53405;57.012;40.984;2023-02-18T03:17:15;35.33;;;16.10;;
59390;SDS011;53405;57.012;40.984;2023-02-18T03:20:24;31.05;;;16.02;;
59390;SDS011;53405;57.012;40.984;2023-02-18T03:23:35;33.42;;;16.60;;
59390;SDS011;53405;57.012;40.984;2023-02-18T03:26:35;31.95;;;16.15;;
59390;SDS011;53405;57.012;40.984;2023-02-18T03:29:30;31.60;;;15.57;;
59390;SDS011;53405;57.012;40.984;2023-02-18T03:32:41;31.08;;;15.38;;
59390;SDS011;53405;57.012;40.984;2023-02-18T03:35:32;34.80;;;16.35;;
59390;SDS011;53405;57.012;40.984;2023-02-18T03:41:25;33.40;;;15.88;;
59390;SDS011;53405;57.012;40.984;2023-02-18T03:44:17;30.20;;;15.18;;
59390;SDS011;53405;57.012;40.984;2023-02-18T03:47:07;32.72;;;15.15;;
59390;SDS011;53405;57.012;40.984;2023-02-18T03:49:55;29.92;;;15.77;;
59390;SDS011;53405;57.012;40.984;2023-02-18T03:52:43;31.00;;;15.77;;
59390;SDS011;53405;57.012;40.984;2023-02-18T03:55:34;34.97;;;17.48;;
59390;SDS011;53405;57.012;40.984;2023-02-18T03:58:22;39.80;;;17.92;;
59390;SDS011;53405;57.012;40.984;2023-02-18T04:01:09;37.45;;;19.02;;
59390;SDS011;53405;57.012;40.984;2023-02-18T04:03:57;36.75;;;17.42;;
59390;SDS011;53405;57.012;40.984;2023-02-18T04:06:45;37.05;;;16.70;;
59390;SDS011;53405;57.012;40.984;2023-02-18T04:09:35;32.15;;;16.98;;
59390;SDS011;53405;57.012;40.984;2023-02-18T04:12:23;34.88;;;16.85;;
59390;SDS011;53405;57.012;40.984;2023-02-18T04:15:13;36.25;;;18.08;;
59390;SDS011;53405;57.012;40.984;2023-02-18T04:18:03;38.03;;;17.15;;
59390;SDS011;53405;57.012;40.984;2023-02-18T04:20:51;31.08;;;15.52;;
59390;SDS011;53405;57.012;40.984;2023-02-18T04:23:41;32.15;;;15.85;;
59390;SDS011;53405;57.012;40.984;2023-02-18T04:26:32;34.15;;;16.92;;
59390;SDS011;53405;57.012;40.984;2023-02-18T04:29:25;34.60;;;15.50;;
59390;SDS011;53405;57.012;40.984;2023-02-18T04:32:13;34.15;;;16.67;;
59390;SDS011;53405;57.012;40.984;2023-02-18T04:35:03;32.85;;;15.93;;
59390;SDS011;53405;57.012;40.984;2023-02-18T04:37:57;30.15;;;15.02;;
59390;SDS011;53405;57.012;40.984;2023-02-18T04:40:44;36.65;;;15.70;;
59390;SDS011;53405;57.012;40.984;2023-02-18T04:43:35;32.92;;;15.02;;
59390;SDS011;53405;57.012;40.984;2023-02-18T04:46:28;32.75;;;15.05;;
59390;SDS011;53405;57.012;40.984;2023-02-18T04:49:15;33.42;;;15.65;;
59390;SDS011;53405;57.012;40.984;2023-02-18T04:52:07;36.25;;;16.50;;
59390;SDS011;53405;57.012;40.984;2023-02-18T04:57:43;37.88;;;15.95;;
59390;SDS011;53405;57.012;40.984;2023-02-18T05:00:33;34.28;;;14.30;;
59390;SDS011;53405;57.012;40.984;2023-02-18T05:03:30;35.40;;;16.13;;
59390;SDS011;53405;57.012;40.984;2023-02-18T05:06:18;35.60;;;15.20;;
59390;SDS011;53405;57.012;40.984;2023-02-18T05:09:20;35.70;;;16.08;;
59390;SDS011;53405;57.012;40.984;2023-02-18T05:12:14;34.25;;;17.02;;
59390;SDS011;53405;57.012;40.984;2023-02-18T05:15:05;39.95;;;17.38;;
59390;SDS011;53405;57.012;40.984;2023-02-18T05:17:53;39.38;;;17.70;;
59390;SDS011;53405;57.012;40.984;2023-02-18T05:20:45;39.05;;;17.52;;
59390;SDS011;53405;57.012;40.984;2023-02-18T05:23:36;34.58;;;17.25;;
59390;SDS011;53405;57.012;40.984;2023-02-18T05:26:29;36.55;;;17.20;;
59390;SDS011;53405;57.012;40.984;2023-02-18T05:29:16;39.25;;;17.67;;
59390;SDS011;53405;57.012;40.984;2023-02-18T05:36:17;34.42;;;16.92;;
59390;SDS011;53405;57.012;40.984;2023-02-18T05:39:07;37.38;;;17.80;;
59390;SDS011;53405;57.012;40.984;2023-02-18T05:41:58;35.65;;;16.88;;
59390;SDS011;53405;57.012;40.984;2023-02-18T05:44:46;40.33;;;18.17;;
59390;SDS011;53405;57.012;40.984;2023-02-18T05:47:57;36.38;;;18.45;;
59390;SDS011;53405;57.012;40.984;2023-02-18T05:50:55;38.88;;;18.75;;
59390;SDS011;53405;57.012;40.984;2023-02-18T05:53:56;35.35;;;16.88;;
59390;SDS011;53405;57.012;40.984;2023-02-18T05:56:52;33.85;;;15.98;;
59390;SDS011;53405;57.012;40.984;2023-02-18T05:59:42;32.90;;;16.45;;
59390;SDS011;53405;57.012;40.984;2023-02-18T06:02:31;95.30;;;41.13;;
59390;SDS011;53405;57.012;40.984;2023-02-18T06:05:19;38.22;;;18.50;;
59390;SDS011;53405;57.012;40.984;2023-02-18T06:08:25;36.75;;;18.48;;
59390;SDS011;53405;57.012;40.984;2023-02-18T06:11:13;39.45;;;17.70;;
59390;SDS011;53405;57.012;40.984;2023-02-18T06:14:06;36.47;;;17.73;;
59390;SDS011;53405;57.012;40.984;2023-02-18T06:16:57;30.90;;;15.18;;
59390;SDS011;53405;57.012;40.984;2023-02-18T06:22:37;38.20;;;17.27;;
59390;SDS011;53405;57.012;40.984;2023-02-18T06:25:39;38.17;;;18.27;;
59390;SDS011;53405;57.012;40.984;2023-02-18T06:28:31;33.88;;;16.40;;
59390;SDS011;53405;57.012;40.984;2023-02-18T06:31:19;32.75;;;16.52;;
59390;SDS011;53405;57.012;40.984;2023-02-18T06:34:10;40.50;;;18.10;;
59390;SDS011;53405;57.012;40.984;2023-02-18T06:37:03;33.35;;;16.17;;
59390;SDS011;53405;57.012;40.984;2023-02-18T06:39:51;32.00;;;14.60;;
59390;SDS011;53405;57.012;40.984;2023-02-18T06:42:48;32.88;;;16.58;;
59390;SDS011;53405;57.012;40.984;2023-02-18T06:45:40;29.27;;;15.27;;
59390;SDS011;53405;57.012;40.984;2023-02-18T06:48:28;30.73;;;15.57;;
59390;SDS011;53405;57.012;40.984;2023-02-18T06:51:16;31.42;;;16.17;;
59390;SDS011;53405;57.012;40.984;2023-02-18T06:54:21;36.88;;;16.70;;
59390;SDS011;53405;57.012;40.984;2023-02-18T06:57:19;36.70;;;17.98;;
59390;SDS011;53405;57.012;40.984;2023-02-18T07:00:12;36.13;;;17.67;;
59390;SDS011;53405;57.012;40.984;2023-02-18T07:03:15;37.35;;;17.98;;
59390;SDS011;53405;57.012;40.984;2023-02-18T07:06:06;36.72;;;16.83;;
59390;SDS011;53405;57.012;40.984;2023-02-18T07:08:54;35.25;;;17.00;;
59390;SDS011;53405;57.012;40.984;2023-02-18T07:11:41;36.80;;;18.13;;
59390;SDS011;53405;57.012;40.984;2023-02-18T07:14:29;37.53;;;17.95;;
59390;SDS011;53405;57.012;40.984;2023-02-18T07:17:24;30.80;;;14.88;;
59390;SDS011;53405;57.012;40.984;2023-02-18T07:20:19;32.35;;;15.18;;
59390;SDS011;53405;57.012;40.984;2023-02-18T07:23:20;28.27;;;15.23;;
59390;SDS011;53405;57.012;40.984;2023-02-18T07:26:09;31.15;;;15.60;;
59390;SDS011;53405;57.012;40.984;2023-02-18T07:29:03;33.88;;;15.35;;
59390;SDS011;53405;57.012;40.984;2023-02-18T07:31:51;36.47;;;16.27;;
59390;SDS011;53405;57.012;40.984;2023-02-18T07:34:38;29.05;;;14.45;;
59390;SDS011;53405;57.012;40.984;2023-02-18T07:37:28;28.38;;;14.32;;
59390;SDS011;53405;57.012;40.984;2023-02-18T07:40:18;29.75;;;12.45;;
59390;SDS011;53405;57.012;40.984;2023-02-18T07:45:57;31.60;;;14.50;;
59390;SDS011;53405;57.012;40.984;2023-02-18T07:48:50;32.47;;;15.27;;
59390;SDS011;53405;57.012;40.984;2023-02-18T07:52:02;40.22;;;18.75;;
59390;SDS011;53405;57.012;40.984;2023-02-18T07:54:51;34.85;;;17.33;;
59390;SDS011;53405;57.012;40.984;2023-02-18T07:58:12;35.35;;;18.67;;
59390;SDS011;53405;57.012;40.984;2023-02-18T08:01:10;40.22;;;18.35;;
59390;SDS011;53405;57.012;40.984;2023-02-18T08:04:08;40.38;;;17.90;;
59390;SDS011;53405;57.012;40.984;2023-02-18T08:06:58;64.10;;;30.70;;
59390;SDS011;53405;57.012;40.984;2023-02-18T08:09:52;39.80;;;19.13;;
59390;SDS011;53405;57.012;40.984;2023-02-18T08:12:43;38.28;;;18.88;;
59390;SDS011;53405;57.012;40.984;2023-02-18T08:15:34;37.13;;;18.40;;
59390;SDS011;53405;57.012;40.984;2023-02-18T08:18:22;36.08;;;19.92;;
59390;SDS011;53405;57.012;40.984;2023-02-18T08:21:11;33.13;;;17.70;;
59390;SDS011;53405;57.012;40.984;2023-02-18T08:23:59;36.80;;;17.05;;
59390;SDS011;53405;57.012;40.984;2023-02-18T08:26:48;36.47;;;17.88;;
59390;SDS011;53405;57.012;40.984;2023-02-18T08:29:46;31.70;;;14.18;;
59390;SDS011;53405;57.012;40.984;2023-02-18T08:32:33;30.45;;;15.82;;
59390;SDS011;53405;57.012;40.984;2023-02-18T08:35:21;30.45;;;15.48;;
59390;SDS011;53405;57.012;40.984;2023-02-18T08:38:09;34.40;;;17.10;;
59390;SDS011;53405;57.012;40.984;2023-02-18T08:41:00;35.80;;;17.17;;
59390;SDS011;53405;57.012;40.984;2023-02-18T08:43:50;36.58;;;18.63;;
59390;SDS011;53405;57.012;40.984;2023-02-18T08:46:37;40.30;;;20.50;;
59390;SDS011;53405;57.012;40.984;2023-02-18T08:49:25;46.42;;;20.63;;
59390;SDS011;53405;57.012;40.984;2023-02-18T08:52:12;36.25;;;18.52;;
59390;SDS011;53405;57.012;40.984;2023-02-18T08:55:02;35.45;;;19.40;;
59390;SDS011;53405;57.012;40.984;2023-02-18T08:57:51;36.60;;;18.73;;
59390;SDS011;53405;57.012;40.984;2023-02-18T09:00:39;33.40;;;17.25;;
59390;SDS011;53405;57.012;40.984;2023-02-18T09:03:27;35.85;;;18.10;;
59390;SDS011;53405;57.012;40.984;2023-02-18T09:06:15;33.67;;;17.40;;
59390;SDS011;53405;57.012;40.984;2023-02-18T09:09:02;36.60;;;18.40;;
59390;SDS011;53405;57.012;40.984;2023-02-18T09:11:50;34.38;;;18.63;;
59390;SDS011;53405;57.012;40.984;2023-02-18T09:14:38;33.53;;;17.10;;
59390;SDS011;53405;57.012;40.984;2023-02-18T09:17:26;34.67;;;18.38;;
59390;SDS011;53405;57.012;40.984;2023-02-18T09:20:14;33.65;;;16.55;;
59390;SDS011;53405;57.012;40.984;2023-02-18T09:23:01;33.90;;;17.95;;
59390;SDS011;53405;57.012;40.984;2023-02-18T09:25:49;38.38;;;19.35;;
59390;SDS011;53405;57.012;40.984;2023-02-18T09:28:37;34.38;;;18.65;;
59390;SDS011;53405;57.012;40.984;2023-02-18T09:31:25;35.22;;;18.73;;
59390;SDS011;53405;57.012;40.984;2023-02-18T09:34:13;42.58;;;19.60;;
59390;SDS011;53405;57.012;40.984;2023-02-18T09:37:01;38.33;;;19.77;;
59390;SDS011;53405;57.012;40.984;2023-02-18T09:39:49;34.70;;;17.80;;
59390;SDS011;53405;57.012;40.984;2023-02-18T09:45:51;37.03;;;18.92;;
59390;SDS011;53405;57.012;40.984;2023-02-18T09:48:39;40.03;;;19.40;;
59390;SDS011;53405;57.012;40.984;2023-02-18T09:51:30;42.05;;;19.77;;
59390;SDS011;53405;57.012;40.984;2023-02-18T09:54:18;35.42;;;17.42;;
59390;SDS011;53405;57.012;40.984;2023-02-18T09:57:06;37.70;;;17.33;;
59390;SDS011;53405;57.012;40.984;2023-02-18T10:00:16;35.40;;;18.00;;
59390;SDS011;53405;57.012;40.984;2023-02-18T10:03:18;41.20;;;18.48;;
59390;SDS011;53405;57.012;40.984;2023-02-18T10:06:21;34.63;;;17.42;;
59390;SDS011;53405;57.012;40.984;2023-02-18T10:12:18;39.80;;;20.48;;
59390;SDS011;53405;57.012;40.984;2023-02-18T10:15:09;48.67;;;21.65;;
59390;SDS011;53405;57.012;40.984;2023-02-18T10:18:07;34.17;;;16.70;;
59390;SDS011;53405;57.012;40.984;2023-02-18T10:21:13;28.92;;;13.93;;
59390;SDS011;53405;57.012;40.984;2023-02-18T10:24:51;35.17;;;16.27;;
59390;SDS011;53405;57.012;40.984;2023-02-18T10:27:23;32.92;;;16.55;;
59390;SDS011;53405;57.012;40.984;2023-02-18T10:33:16;28.30;;;14.88;;
59390;SDS011;53405;57.012;40.984;2023-02-18T10:51:27;30.15;;;14.52;;
59390;SDS011;53405;57.012;40.984;2023-02-18T10:54:17;28.73;;;13.27;;
59390;SDS011;53405;57.012;40.984;2023-02-18T10:57:11;25.42;;;12.27;;
59390;SDS011;53405;57.012;40.984;2023-02-18T11:06:01;29.60;;;13.73;;
59390;SDS011;53405;57.012;40.984;2023-02-18T11:08:50;26.60;;;13.18;;
59390;SDS011;53405;57.012;40.984;2023-02-18T11:11:40;26.23;;;13.68;;
59390;SDS011;53405;57.012;40.984;2023-02-18T11:14:35;33.97;;;15.55;;
59390;SDS011;53405;57.012;40.984;2023-02-18T11:17:30;29.33;;;12.88;;
59390;SDS011;53405;57.012;40.984;2023-02-18T11:23:15;28.75;;;13.30;;
59390;SDS011;53405;57.012;40.984;2023-02-18T11:26:06;31.98;;;14.27;;
59390;SDS011;53405;57.012;40.984;2023-02-18T11:29:03;28.38;;;13.60;;
59390;SDS011;53405;57.012;40.984;2023-02-18T11:31:58;29.65;;;13.50;;
59390;SDS011;53405;57.012;40.984;2023-02-18T11:34:47;27.00;;;11.45;;
59390;SDS011;53405;57.012;40.984;2023-02-18T11:37:36;27.38;;;11.50;;
59390;SDS011;53405;57.012;40.984;2023-02-18T11:40:32;29.73;;;14.52;;
59390;SDS011;53405;57.012;40.984;2023-02-18T11:43:22;34.67;;;13.30;;
59390;SDS011;53405;57.012;40.984;2023-02-18T11:46:16;30.30;;;13.23;;
59390;SDS011;53405;57.012;40.984;2023-02-18T11:49:10;27.63;;;12.85;;
59390;SDS011;53405;57.012;40.984;2023-02-18T11:55:19;27.65;;;12.07;;
59390;SDS011;53405;57.012;40.984;2023-02-18T11:58:09;33.65;;;15.77;;
59390;SDS011;53405;57.012;40.984;2023-02-18T12:01:02;29.45;;;13.23;;
59390;SDS011;53405;57.012;40.984;2023-02-18T12:03:54;30.38;;;13.63;;
59390;SDS011;53405;57.012;40.984;2023-02-18T12:07:00;29.33;;;14.85;;
59390;SDS011;53405;57.012;40.984;2023-02-18T12:10:11;29.27;;;12.75;;
59390;SDS011;53405;57.012;40.984;2023-02-18T12:13:09;26.60;;;11.50;;
59390;SDS011;53405;57.012;40.984;2023-02-18T12:25:32;25.27;;;11.05;;
59390;SDS011;53405;57.012;40.984;2023-02-18T12:43:14;20.50;;;9.85;;
59390;SDS011;53405;57.012;40.984;2023-02-18T12:49:25;22.45;;;10.45;;
59390;SDS011;53405;57.012;40.984;2023-02-18T12:59:42;17.83;;;8.55;;
59390;SDS011;53405;57.012;40.984;2023-02-18T13:12:45;15.77;;;7.20;;
59390;SDS011;53405;57.012;40.984;2023-02-18T13:22:13;16.92;;;8.60;;
59390;SDS011;53405;57.012;40.984;2023-02-18T13:25:05;18.55;;;9.13;;
59390;SDS011;53405;57.012;40.984;2023-02-18T13:31:14;21.05;;;9.23;;
59390;SDS011;53405;57.012;40.984;2023-02-18T13:34:07;18.95;;;8.60;;
59390;SDS011;53405;57.012;40.984;2023-02-18T13:40:27;18.00;;;9.57;;
59390;SDS011;53405;57.012;40.984;2023-02-18T13:49:06;13.23;;;6.13;;
59390;SDS011;53405;57.012;40.984;2023-02-18T13:52:01;11.90;;;5.63;;
59390;SDS011;53405;57.012;40.984;2023-02-18T13:54:50;14.13;;;6.18;;
59390;SDS011;53405;57.012;40.984;2023-02-18T13:57:38;13.18;;;6.32;;
59390;SDS011;53405;57.012;40.984;2023-02-18T14:00:33;13.38;;;6.70;;
59390;SDS011;53405;57.012;40.984;2023-02-18T14:06:24;16.40;;;8.10;;
59390;SDS011;53405;57.012;40.984;2023-02-18T14:12:24;14.75;;;6.60;;
59390;SDS011;53405;57.012;40.984;2023-02-18T14:21:19;15.18;;;6.90;;
59390;SDS011;53405;57.012;40.984;2023-02-18T14:24:20;15.32;;;6.45;;
59390;SDS011;53405;57.012;40.984;2023-02-18T14:27:34;14.60;;;6.82;;
59390;SDS011;53405;57.012;40.984;2023-02-18T14:30:25;17.38;;;7.85;;
59390;SDS011;53405;57.012;40.984;2023-02-18T14:33:33;13.93;;;7.03;;
59390;SDS011;53405;57.012;40.984;2023-02-18T14:36:31;14.73;;;8.00;;
59390;SDS011;53405;57.012;40.984;2023-02-18T14:39:41;17.73;;;7.38;;
59390;SDS011;53405;57.012;40.984;2023-02-18T14:49:43;15.98;;;7.32;;
59390;SDS011;53405;57.012;40.984;2023-02-18T14:52:40;14.45;;;6.85;;
59390;SDS011;53405;57.012;40.984;2023-02-18T14:55:42;13.02;;;6.53;;
59390;SDS011;53405;57.012;40.984;2023-02-18T14:58:35;14.60;;;6.97;;
59390;SDS011;53405;57.012;40.984;2023-02-18T15:01:30;13.35;;;6.00;;
59390;SDS011;53405;57.012;40.984;2023-02-18T15:04:23;13.20;;;6.63;;
59390;SDS011;53405;57.012;40.984;2023-02-18T15:07:12;13.30;;;7.03;;
59390;SDS011;53405;57.012;40.984;2023-02-18T15:09:59;12.02;;;5.97;;
59390;SDS011;53405;57.012;40.984;2023-02-18T15:12:49;12.88;;;6.32;;
59390;SDS011;53405;57.012;40.984;2023-02-18T15:15:37;14.95;;;7.18;;
59390;SDS011;53405;57.012;40.984;2023-02-18T15:27:29;17.50;;;8.15;;
59390;SDS011;53405;57.012;40.984;2023-02-18T15:30:26;17.63;;;9.00;;
59390;SDS011;53405;57.012;40.984;2023-02-18T15:33:17;18.73;;;9.10;;
59390;SDS011;53405;57.012;40.984;2023-02-18T15:36:10;17.17;;;8.68;;
59390;SDS011;53405;57.012;40.984;2023-02-18T15:39:00;20.02;;;9.85;;
59390;SDS011;53405;57.012;40.984;2023-02-18T15:41:56;15.27;;;7.45;;
59390;SDS011;53405;57.012;40.984;2023-02-18T15:44:50;18.15;;;8.88;;
59390;SDS011;53405;57.012;40.984;2023-02-18T15:47:42;17.25;;;7.28;;
59390;SDS011;53405;57.012;40.984;2023-02-18T15:50:34;16.92;;;7.50;;
59390;SDS011;53405;57.012;40.984;2023-02-18T15:53:23;14.65;;;6.93;;
59390;SDS011;53405;57.012;40.984;2023-02-18T15:56:14;16.17;;;7.65;;
59390;SDS011;53405;57.012;40.984;2023-02-18T16:02:21;16.38;;;8.10;;
59390;SDS011;53405;57.012;40.984;2023-02-18T16:05:13;16.38;;;7.03;;
59390;SDS011;53405;57.012;40.984;2023-02-18T16:08:05;16.95;;;7.47;;
59390;SDS011;53405;57.012;40.984;2023-02-18T16:11:02;16.00;;;8.15;;
59390;SDS011;53405;57.012;40.984;2023-02-18T16:13:55;15.93;;;7.53;;
59390;SDS011;53405;57.012;40.984;2023-02-18T16:16:43;18.40;;;8.60;;
59390;SDS011;53405;57.012;40.984;2023-02-18T16:20:24;18.73;;;8.52;;
59390;SDS011;53405;57.012;40.984;2023-02-18T16:23:45;22.38;;;10.45;;
59390;SDS011;53405;57.012;40.984;2023-02-18T16:26:45;35.13;;;16.80;;
59390;SDS011;53405;57.012;40.984;2023-02-18T16:29:38;35.88;;;18.23;;
59390;SDS011;53405;57.012;40.984;2023-02-18T16:32:27;30.10;;;13.13;;
59390;SDS011;53405;57.012;40.984;2023-02-18T16:35:15;27.40;;;12.13;;
59390;SDS011;53405;57.012;40.984;2023-02-18T16:38:03;25.67;;;12.18;;
59390;SDS011;53405;57.012;40.984;2023-02-18T16:40:51;28.35;;;11.88;;
59390;SDS011;53405;57.012;40.984;2023-02-18T16:43:41;27.67;;;12.95;;
59390;SDS011;53405;57.012;40.984;2023-02-18T16:46:29;30.15;;;12.95;;
59390;SDS011;53405;57.012;40.984;2023-02-18T16:49:17;30.08;;;13.57;;
59390;SDS011;53405;57.012;40.984;2023-02-18T16:52:07;34.00;;;13.65;;
59390;SDS011;53405;57.012;40.984;2023-02-18T16:54:57;31.75;;;14.55;;
59390;SDS011;53405;57.012;40.984;2023-02-18T16:57:45;34.30;;;15.05;;
59390;SDS011;53405;57.012;40.984;2023-02-18T17:00:34;33.30;;;14.60;;
59390;SDS011;53405;57.012;40.984;2023-02-18T17:03:21;33.38;;;14.18;;
59390;SDS011;53405;57.012;40.984;2023-02-18T17:06:09;38.60;;;15.98;;
59390;SDS011;53405;57.012;40.984;2023-02-18T17:08:57;39.85;;;16.60;;
59390;SDS011;53405;57.012;40.984;2023-02-18T17:11:46;41.53;;;16.58;;
59390;SDS011;53405;57.012;40.984;2023-02-18T17:14:35;41.03;;;16.85;;
59390;SDS011;53405;57.012;40.984;2023-02-18T17:17:23;45.50;;;18.73;;
59390;SDS011;53405;57.012;40.984;2023-02-18T17:20:10;38.47;;;15.48;;
59390;SDS011;53405;57.012;40.984;2023-02-18T17:25:49;40.25;;;17.95;;
59390;SDS011;53405;57.012;40.984;2023-02-18T17:28:37;39.70;;;18.75;;
59390;SDS011;53405;57.012;40.984;2023-02-18T17:31:25;43.33;;;18.75;;
59390;SDS011;53405;57.012;40.984;2023-02-18T17:34:20;41.17;;;17.50;;
59390;SDS011;53405;57.012;40.984;2023-02-18T17:37:13;43.60;;;19.20;;
59390;SDS011;53405;57.012;40.984;2023-02-18T17:40:01;41.33;;;18.67;;
59390;SDS011;53405;57.012;40.984;2023-02-18T17:42:49;38.65;;;17.80;;
59390;SDS011;53405;57.012;40.984;2023-02-18T17:45:42;37.10;;;16.75;;
59390;SDS011;53405;57.012;40.984;2023-02-18T17:48:35;37.13;;;17.60;;
59390;SDS011;53405;57.012;40.984;2023-02-18T17:51:24;37.45;;;17.70;;
59390;SDS011;53405;57.012;40.984;2023-02-18T17:54:14;40.13;;;19.20;;
59390;SDS011;53405;57.012;40.984;2023-02-18T17:57:04;34.55;;;16.55;;
59390;SDS011;53405;57.012;40.984;2023-02-18T17:59:52;36.22;;;16.65;;
59390;SDS011;53405;57.012;40.984;2023-02-18T18:02:40;33.72;;;14.77;;
59390;SDS011;53405;57.012;40.984;2023-02-18T18:05:30;32.67;;;16.65;;
59390;SDS011;53405;57.012;40.984;2023-02-18T18:08:19;33.72;;;16.33;;
59390;SDS011;53405;57.012;40.984;2023-02-18T18:11:08;32.63;;;17.02;;
59390;SDS011;53405;57.012;40.984;2023-02-18T18:14:00;38.00;;;17.17;;
59390;SDS011;53405;57.012;40.984;2023-02-18T18:16:48;31.10;;;16.20;;
59390;SDS011;53405;57.012;40.984;2023-02-18T18:19:35;31.38;;;16.55;;
59390;SDS011;53405;57.012;40.984;2023-02-18T18:22:24;34.92;;;17.30;;
59390;SDS011;53405;57.012;40.984;2023-02-18T18:28:03;32.20;;;15.85;;
59390;SDS011;53405;57.012;40.984;2023-02-18T18:30:52;31.30;;;15.93;;
59390;SDS011;53405;57.012;40.984;2023-02-18T18:33:41;33.07;;;16.70;;
59390;SDS011;53405;57.012;40.984;2023-02-18T18:36:29;33.22;;;16.58;;
59390;SDS011;53405;57.012;40.984;2023-02-18T18:39:16;29.58;;;15.10;;
59390;SDS011;53405;57.012;40.984;2023-02-18T18:42:04;36.58;;;17.42;;
59390;SDS011;53405;57.012;40.984;2023-02-18T18:44:53;35.22;;;16.15;;
59390;SDS011;53405;57.012;40.984;2023-02-18T18:47:41;28.10;;;13.70;;
59390;SDS011;53405;57.012;40.984;2023-02-18T18:50:28;30.15;;;14.75;;
59390;SDS011;53405;57.012;40.984;2023-02-18T18:53:21;29.48;;;15.55;;
59390;SDS011;53405;57.012;40.984;2023-02-18T18:56:11;33.85;;;16.40;;
59390;SDS011;53405;57.012;40.984;2023-02-18T18:58:58;29.10;;;15.27;;
59390;SDS011;53405;57.012;40.984;2023-02-18T19:01:46;30.23;;;15.05;;
59390;SDS011;53405;57.012;40.984;2023-02-18T19:04:34;33.17;;;16.17;;
59390;SDS011;53405;57.012;40.984;2023-02-18T19:07:21;31.48;;;16.00;;
59390;SDS011;53405;57.012;40.984;2023-02-18T19:10:08;33.13;;;16.45;;
59390;SDS011;53405;57.012;40.984;2023-02-18T19:13:06;38.28;;;19.80;;
59390;SDS011;53405;57.012;40.984;2023-02-18T19:18:49;52.33;;;25.60;;
59390;SDS011;53405;57.012;40.984;2023-02-18T19:21:36;45.67;;;20.27;;
59390;SDS011;53405;57.012;40.984;2023-02-18T19:24:24;39.58;;;18.50;;
59390;SDS011;53405;57.012;40.984;2023-02-18T19:27:12;34.22;;;16.80;;
59390;SDS011;53405;57.012;40.984;2023-02-18T19:30:00;34.97;;;16.85;;
59390;SDS011;53405;57.012;40.984;2023-02-18T19:32:51;36.67;;;17.73;;
59390;SDS011;53405;57.012;40.984;2023-02-18T19:35:41;33.38;;;16.90;;
59390;SDS011;53405;57.012;40.984;2023-02-18T19:38:30;32.00;;;15.60;;
59390;SDS011;53405;57.012;40.984;2023-02-18T19:41:18;33.15;;;16.27;;